sensor_id;sensor_type;location;lat;lon;timestamp;temperature;humidity
9219;DHT22;4644;48.858;9.184;2023-06-04T00:01:12;16.40;76.10
9219;DHT22;4644;48.858;9.184;2023-06-04T00:03:39;16.30;75.70
9219;DHT22;4644;48.858;9.184;2023-06-04T00:06:07;16.30;75.90
9219;DHT22;4644;48.858;9.184;2023-06-04T00:08:34;16.30;77.10
9219;DHT22;4644;48.858;9.184;2023-06-04T00:11:01;16.20;76.20
9219;DHT22;4644;48.858;9.184;2023-06-04T00:13:28;16.20;76.90
9219;DHT22;4644;48.858;9.184;2023-06-04T00:15:55;16.10;74.90
9219;DHT22;4644;48.858;9.184;2023-06-04T00:18:22;16.20;75.80
9219;DHT22;4644;48.858;9.184;2023-06-04T00:20:49;16.20;76.20
9219;DHT22;4644;48.858;9.184;2023-06-04T00:23:17;16.10;74.80
9219;DHT22;4644;48.858;9.184;2023-06-04T00:25:44;16.10;74.80
9219;DHT22;4644;48.858;9.184;2023-06-04T00:28:11;16.10;74.70
9219;DHT22;4644;48.858;9.184;2023-06-04T00:30:38;16.10;75.40
9219;DHT22;4644;48.858;9.184;2023-06-04T00:33:05;16.00;74.50
9219;DHT22;4644;48.858;9.184;2023-06-04T00:35:33;16.00;75.90
9219;DHT22;4644;48.858;9.184;2023-06-04T00:37:59;16.00;75.20
9219;DHT22;4644;48.858;9.184;2023-06-04T00:40:28;15.90;76.50
9219;DHT22;4644;48.858;9.184;2023-06-04T00:42:55;15.90;75.90
9219;DHT22;4644;48.858;9.184;2023-06-04T00:45:22;15.80;75.60
9219;DHT22;4644;48.858;9.184;2023-06-04T00:47:51;15.80;76.40
9219;DHT22;4644;48.858;9.184;2023-06-04T00:50:19;15.70;76.20
9219;DHT22;4644;48.858;9.184;2023-06-04T00:52:47;15.70;76.80
9219;DHT22;4644;48.858;9.184;2023-06-04T00:55:14;15.60;75.60
9219;DHT22;4644;48.858;9.184;2023-06-04T00:57:44;15.60;74.90
9219;DHT22;4644;48.858;9.184;2023-06-04T01:00:12;15.60;75.30
9219;DHT22;4644;48.858;9.184;2023-06-04T01:02:40;15.50;75.30
9219;DHT22;4644;48.858;9.184;2023-06-04T01:05:16;15.50;76.50
9219;DHT22;4644;48.858;9.184;2023-06-04T01:07:47;15.50;77.20
9219;DHT22;4644;48.858;9.184;2023-06-04T01:10:15;15.40;77.10
9219;DHT22;4644;48.858;9.184;2023-06-04T01:12:43;15.40;79.30
9219;DHT22;4644;48.858;9.184;2023-06-04T01:15:11;15.30;79.40
9219;DHT22;4644;48.858;9.184;2023-06-04T01:17:40;15.30;77.90
9219;DHT22;4644;48.858;9.184;2023-06-04T01:20:25;15.20;76.00
9219;DHT22;4644;48.858;9.184;2023-06-04T01:23:14;15.20;77.50
9219;DHT22;4644;48.858;9.184;2023-06-04T01:25:45;15.20;77.80
9219;DHT22;4644;48.858;9.184;2023-06-04T01:28:16;15.20;78.00
9219;DHT22;4644;48.858;9.184;2023-06-04T01:30:46;15.10;78.40
9219;DHT22;4644;48.858;9.184;2023-06-04T01:33:15;15.00;79.20
9219;DHT22;4644;48.858;9.184;2023-06-04T01:35:43;15.00;78.30
9219;DHT22;4644;48.858;9.184;2023-06-04T01:38:10;14.90;78.50
9219;DHT22;4644;48.858;9.184;2023-06-04T01:40:37;14.90;77.40
9219;DHT22;4644;48.858;9.184;2023-06-04T01:43:04;14.90;74.80
9219;DHT22;4644;48.858;9.184;2023-06-04T01:45:33;14.90;76.10
9219;DHT22;4644;48.858;9.184;2023-06-04T01:48:01;14.90;75.30
9219;DHT22;4644;48.858;9.184;2023-06-04T01:50:28;14.90;76.40
9219;DHT22;4644;48.858;9.184;2023-06-04T01:52:56;14.90;75.80
9219;DHT22;4644;48.858;9.184;2023-06-04T01:55:23;14.80;75.70
9219;DHT22;4644;48.858;9.184;2023-06-04T01:57:51;14.80;75.70
9219;DHT22;4644;48.858;9.184;2023-06-04T02:00:19;14.90;74.90
9219;DHT22;4644;48.858;9.184;2023-06-04T02:02:47;14.80;75.50
9219;DHT22;4644;48.858;9.184;2023-06-04T02:05:15;14.80;76.40
9219;DHT22;4644;48.858;9.184;2023-06-04T02:07:44;14.70;74.20
9219;DHT22;4644;48.858;9.184;2023-06-04T02:10:12;14.70;72.10
9219;DHT22;4644;48.858;9.184;2023-06-04T02:12:41;14.70;72.70
9219;DHT22;4644;48.858;9.184;2023-06-04T02:15:10;14.70;73.40
9219;DHT22;4644;48.858;9.184;2023-06-04T02:17:37;14.60;73.40
9219;DHT22;4644;48.858;9.184;2023-06-04T02:20:08;14.60;73.40
9219;DHT22;4644;48.858;9.184;2023-06-04T02:22:36;14.60;73.00
9219;DHT22;4644;48.858;9.184;2023-06-04T02:25:03;14.60;74.10
9219;DHT22;4644;48.858;9.184;2023-06-04T02:27:30;14.60;71.40
9219;DHT22;4644;48.858;9.184;2023-06-04T02:29:57;14.60;73.30
9219;DHT22;4644;48.858;9.184;2023-06-04T02:32:24;14.50;73.10
9219;DHT22;4644;48.858;9.184;2023-06-04T02:34:51;14.40;72.10
9219;DHT22;4644;48.858;9.184;2023-06-04T02:37:19;14.40;73.30
9219;DHT22;4644;48.858;9.184;2023-06-04T02:39:46;14.40;73.10
9219;DHT22;4644;48.858;9.184;2023-06-04T02:42:13;14.40;76.30
9219;DHT22;4644;48.858;9.184;2023-06-04T02:44:40;14.30;77.00
9219;DHT22;4644;48.858;9.184;2023-06-04T02:47:07;14.30;78.40
9219;DHT22;4644;48.858;9.184;2023-06-04T02:49:34;14.20;77.90
9219;DHT22;4644;48.858;9.184;2023-06-04T02:52:01;14.20;76.90
9219;DHT22;4644;48.858;9.184;2023-06-04T02:54:30;14.10;76.00
9219;DHT22;4644;48.858;9.184;2023-06-04T02:56:56;14.10;76.70
9219;DHT22;4644;48.858;9.184;2023-06-04T02:59:24;14.10;76.50
9219;DHT22;4644;48.858;9.184;2023-06-04T03:01:51;14.10;75.30
9219;DHT22;4644;48.858;9.184;2023-06-04T03:04:18;14.10;76.70
9219;DHT22;4644;48.858;9.184;2023-06-04T03:06:46;14.00;78.00
9219;DHT22;4644;48.858;9.184;2023-06-04T03:09:13;14.00;77.00
9219;DHT22;4644;48.858;9.184;2023-06-04T03:11:41;14.00;75.70
9219;DHT22;4644;48.858;9.184;2023-06-04T03:14:08;14.00;75.40
9219;DHT22;4644;48.858;9.184;2023-06-04T03:16:35;14.00;75.90
9219;DHT22;4644;48.858;9.184;2023-06-04T03:19:05;14.00;77.10
9219;DHT22;4644;48.858;9.184;2023-06-04T03:21:32;14.00;77.00
9219;DHT22;4644;48.858;9.184;2023-06-04T03:23:59;14.00;77.50
9219;DHT22;4644;48.858;9.184;2023-06-04T03:26:26;14.00;80.20
9219;DHT22;4644;48.858;9.184;2023-06-04T03:28:54;13.90;78.40
9219;DHT22;4644;48.858;9.184;2023-06-04T03:31:21;13.90;77.90
9219;DHT22;4644;48.858;9.184;2023-06-04T03:33:48;13.80;79.40
9219;DHT22;4644;48.858;9.184;2023-06-04T03:36:15;13.80;82.80
9219;DHT22;4644;48.858;9.184;2023-06-04T03:38:45;13.90;82.20
9219;DHT22;4644;48.858;9.184;2023-06-04T03:41:12;13.80;79.10
9219;DHT22;4644;48.858;9.184;2023-06-04T03:43:38;13.80;80.10
9219;DHT22;4644;48.858;9.184;2023-06-04T03:46:07;13.70;81.50
9219;DHT22;4644;48.858;9.184;2023-06-04T03:48:34;13.60;84.20
9219;DHT22;4644;48.858;9.184;2023-06-04T03:51:01;13.60;83.40
9219;DHT22;4644;48.858;9.184;2023-06-04T03:53:28;13.60;83.50
9219;DHT22;4644;48.858;9.184;2023-06-04T03:55:55;13.70;81.00
9219;DHT22;4644;48.858;9.184;2023-06-04T03:58:22;13.60;82.50
9219;DHT22;4644;48.858;9.184;2023-06-04T04:00:49;13.70;82.00
9219;DHT22;4644;48.858;9.184;2023-06-04T04:03:18;13.60;80.30
9219;DHT22;4644;48.858;9.184;2023-06-04T04:05:45;13.60;82.50
9219;DHT22;4644;48.858;9.184;2023-06-04T04:08:12;13.70;79.20
9219;DHT22;4644;48.858;9.184;2023-06-04T04:10:41;13.70;81.30
9219;DHT22;4644;48.858;9.184;2023-06-04T04:13:08;13.70;80.40
9219;DHT22;4644;48.858;9.184;2023-06-04T04:15:35;13.80;78.20
9219;DHT22;4644;48.858;9.184;2023-06-04T04:18:02;13.80;76.80
9219;DHT22;4644;48.858;9.184;2023-06-04T04:20:31;13.90;78.10
9219;DHT22;4644;48.858;9.184;2023-06-04T04:22:58;13.90;78.50
9219;DHT22;4644;48.858;9.184;2023-06-04T04:25:25;13.90;78.70
9219;DHT22;4644;48.858;9.184;2023-06-04T04:27:53;13.80;77.80
9219;DHT22;4644;48.858;9.184;2023-06-04T04:30:22;13.90;77.60
9219;DHT22;4644;48.858;9.184;2023-06-04T04:32:49;13.90;76.20
9219;DHT22;4644;48.858;9.184;2023-06-04T04:35:15;14.00;75.90
9219;DHT22;4644;48.858;9.184;2023-06-04T04:37:45;14.00;75.90
9219;DHT22;4644;48.858;9.184;2023-06-04T04:40:12;14.10;77.40
9219;DHT22;4644;48.858;9.184;2023-06-04T04:42:39;14.20;76.30
9219;DHT22;4644;48.858;9.184;2023-06-04T04:45:08;14.40;75.20
9219;DHT22;4644;48.858;9.184;2023-06-04T04:47:35;14.50;76.40
9219;DHT22;4644;48.858;9.184;2023-06-04T04:50:02;14.50;75.00
9219;DHT22;4644;48.858;9.184;2023-06-04T04:52:30;14.60;74.00
9219;DHT22;4644;48.858;9.184;2023-06-04T04:54:58;14.80;72.70
9219;DHT22;4644;48.858;9.184;2023-06-04T04:57:25;14.90;71.90
9219;DHT22;4644;48.858;9.184;2023-06-04T04:59:52;15.10;73.40
9219;DHT22;4644;48.858;9.184;2023-06-04T05:02:19;15.30;70.80
9219;DHT22;4644;48.858;9.184;2023-06-04T05:04:46;15.60;71.70
9219;DHT22;4644;48.858;9.184;2023-06-04T05:07:13;15.80;68.40
9219;DHT22;4644;48.858;9.184;2023-06-04T05:09:41;16.00;70.20
9219;DHT22;4644;48.858;9.184;2023-06-04T05:12:09;16.10;69.30
9219;DHT22;4644;48.858;9.184;2023-06-04T05:14:36;15.80;67.20
9219;DHT22;4644;48.858;9.184;2023-06-04T05:17:03;15.70;66.50
9219;DHT22;4644;48.858;9.184;2023-06-04T05:19:31;15.50;68.10
9219;DHT22;4644;48.858;9.184;2023-06-04T05:22:00;15.30;68.30
9219;DHT22;4644;48.858;9.184;2023-06-04T05:24:27;15.20;69.20
9219;DHT22;4644;48.858;9.184;2023-06-04T05:26:54;15.20;69.80
9219;DHT22;4644;48.858;9.184;2023-06-04T05:29:23;15.30;70.70
9219;DHT22;4644;48.858;9.184;2023-06-04T05:31:52;15.50;72.20
9219;DHT22;4644;48.858;9.184;2023-06-04T05:34:19;15.80;70.40
9219;DHT22;4644;48.858;9.184;2023-06-04T05:36:47;16.20;71.50
9219;DHT22;4644;48.858;9.184;2023-06-04T05:39:13;16.40;70.40
9219;DHT22;4644;48.858;9.184;2023-06-04T05:41:41;16.70;66.30
9219;DHT22;4644;48.858;9.184;2023-06-04T05:44:08;16.80;64.60
9219;DHT22;4644;48.858;9.184;2023-06-04T05:46:36;17.00;66.30
9219;DHT22;4644;48.858;9.184;2023-06-04T05:49:03;17.30;67.10
9219;DHT22;4644;48.858;9.184;2023-06-04T05:51:30;17.40;65.00
9219;DHT22;4644;48.858;9.184;2023-06-04T05:53:57;17.50;62.80
9219;DHT22;4644;48.858;9.184;2023-06-04T05:56:24;17.50;61.40
9219;DHT22;4644;48.858;9.184;2023-06-04T05:58:52;17.10;62.60
9219;DHT22;4644;48.858;9.184;2023-06-04T06:01:19;16.90;64.90
9219;DHT22;4644;48.858;9.184;2023-06-04T06:03:48;16.80;65.20
9219;DHT22;4644;48.858;9.184;2023-06-04T06:06:15;16.80;65.50
9219;DHT22;4644;48.858;9.184;2023-06-04T06:08:44;16.90;63.80
9219;DHT22;4644;48.858;9.184;2023-06-04T06:11:11;17.00;63.80
9219;DHT22;4644;48.858;9.184;2023-06-04T06:13:37;17.30;66.10
9219;DHT22;4644;48.858;9.184;2023-06-04T06:16:05;17.90;64.30
9219;DHT22;4644;48.858;9.184;2023-06-04T06:18:32;18.20;60.00
9219;DHT22;4644;48.858;9.184;2023-06-04T06:21:00;18.40;60.40
9219;DHT22;4644;48.858;9.184;2023-06-04T06:23:27;18.60;62.20
9219;DHT22;4644;48.858;9.184;2023-06-04T06:25:54;18.80;58.80
9219;DHT22;4644;48.858;9.184;2023-06-04T06:28:21;19.10;60.70
9219;DHT22;4644;48.858;9.184;2023-06-04T06:30:48;19.30;57.50
9219;DHT22;4644;48.858;9.184;2023-06-04T06:33:16;19.60;59.60
9219;DHT22;4644;48.858;9.184;2023-06-04T06:35:47;19.60;57.10
9219;DHT22;4644;48.858;9.184;2023-06-04T06:38:15;19.70;56.20
9219;DHT22;4644;48.858;9.184;2023-06-04T06:40:42;20.20;57.20
9219;DHT22;4644;48.858;9.184;2023-06-04T06:43:09;20.40;54.90
9219;DHT22;4644;48.858;9.184;2023-06-04T06:45:36;20.40;54.70
9219;DHT22;4644;48.858;9.184;2023-06-04T06:48:04;20.40;55.20
9219;DHT22;4644;48.858;9.184;2023-06-04T06:50:31;20.10;55.60
9219;DHT22;4644;48.858;9.184;2023-06-04T06:52:58;20.30;58.80
9219;DHT22;4644;48.858;9.184;2023-06-04T06:55:27;20.70;58.70
9219;DHT22;4644;48.858;9.184;2023-06-04T06:57:54;20.90;59.10
9219;DHT22;4644;48.858;9.184;2023-06-04T07:00:34;21.20;56.50
9219;DHT22;4644;48.858;9.184;2023-06-04T07:03:06;21.30;56.00
9219;DHT22;4644;48.858;9.184;2023-06-04T07:05:34;21.50;57.70
9219;DHT22;4644;48.858;9.184;2023-06-04T07:08:01;21.70;55.30
9219;DHT22;4644;48.858;9.184;2023-06-04T07:10:29;21.60;55.90
9219;DHT22;4644;48.858;9.184;2023-06-04T07:12:56;21.50;54.20
9219;DHT22;4644;48.858;9.184;2023-06-04T07:15:26;21.40;54.40
9219;DHT22;4644;48.858;9.184;2023-06-04T07:17:52;21.20;55.40
9219;DHT22;4644;48.858;9.184;2023-06-04T07:20:20;21.60;58.70
9219;DHT22;4644;48.858;9.184;2023-06-04T07:22:46;22.10;54.90
9219;DHT22;4644;48.858;9.184;2023-06-04T07:25:13;22.00;58.10
9219;DHT22;4644;48.858;9.184;2023-06-04T07:27:42;22.40;55.90
9219;DHT22;4644;48.858;9.184;2023-06-04T07:30:11;22.40;55.40
9219;DHT22;4644;48.858;9.184;2023-06-04T07:32:38;22.50;57.60
9219;DHT22;4644;48.858;9.184;2023-06-04T07:35:05;22.40;54.70
9219;DHT22;4644;48.858;9.184;2023-06-04T07:37:32;22.20;54.00
9219;DHT22;4644;48.858;9.184;2023-06-04T07:39:59;22.10;54.70
9219;DHT22;4644;48.858;9.184;2023-06-04T07:42:26;22.10;55.00
9219;DHT22;4644;48.858;9.184;2023-06-04T07:44:55;22.40;55.00
9219;DHT22;4644;48.858;9.184;2023-06-04T07:47:22;22.80;56.20
9219;DHT22;4644;48.858;9.184;2023-06-04T07:49:49;22.80;54.20
9219;DHT22;4644;48.858;9.184;2023-06-04T07:52:16;22.60;53.80
9219;DHT22;4644;48.858;9.184;2023-06-04T07:54:43;22.00;54.60
9219;DHT22;4644;48.858;9.184;2023-06-04T07:57:10;21.80;59.10
9219;DHT22;4644;48.858;9.184;2023-06-04T07:59:37;22.10;55.60
9219;DHT22;4644;48.858;9.184;2023-06-04T08:02:05;22.20;58.00
9219;DHT22;4644;48.858;9.184;2023-06-04T08:04:32;22.60;57.00
9219;DHT22;4644;48.858;9.184;2023-06-04T08:06:59;23.10;56.60
9219;DHT22;4644;48.858;9.184;2023-06-04T08:09:26;23.30;53.10
9219;DHT22;4644;48.858;9.184;2023-06-04T08:11:53;22.90;53.80
9219;DHT22;4644;48.858;9.184;2023-06-04T08:14:20;22.80;55.90
9219;DHT22;4644;48.858;9.184;2023-06-04T08:16:48;23.20;55.50
9219;DHT22;4644;48.858;9.184;2023-06-04T08:19:16;23.40;54.20
9219;DHT22;4644;48.858;9.184;2023-06-04T08:21:43;23.10;54.50
9219;DHT22;4644;48.858;9.184;2023-06-04T08:24:10;23.00;54.30
9219;DHT22;4644;48.858;9.184;2023-06-04T08:26:37;23.30;54.70
9219;DHT22;4644;48.858;9.184;2023-06-04T08:29:04;23.40;55.30
9219;DHT22;4644;48.858;9.184;2023-06-04T08:31:31;23.70;53.20
9219;DHT22;4644;48.858;9.184;2023-06-04T08:33:58;23.70;52.40
9219;DHT22;4644;48.858;9.184;2023-06-04T08:36:27;23.50;54.10
9219;DHT22;4644;48.858;9.184;2023-06-04T08:38:54;23.40;53.50
9219;DHT22;4644;48.858;9.184;2023-06-04T08:41:27;23.50;53.80
9219;DHT22;4644;48.858;9.184;2023-06-04T08:43:56;23.80;54.70
9219;DHT22;4644;48.858;9.184;2023-06-04T08:46:23;23.90;53.20
9219;DHT22;4644;48.858;9.184;2023-06-04T08:48:50;24.30;54.80
9219;DHT22;4644;48.858;9.184;2023-06-04T08:51:18;24.60;53.90
9219;DHT22;4644;48.858;9.184;2023-06-04T08:53:49;24.70;52.20
9219;DHT22;4644;48.858;9.184;2023-06-04T08:56:19;24.90;53.10
9219;DHT22;4644;48.858;9.184;2023-06-04T08:58:47;24.90;53.70
9219;DHT22;4644;48.858;9.184;2023-06-04T09:01:15;24.90;51.70
9219;DHT22;4644;48.858;9.184;2023-06-04T09:03:43;24.80;51.60
9219;DHT22;4644;48.858;9.184;2023-06-04T09:06:12;24.60;51.50
9219;DHT22;4644;48.858;9.184;2023-06-04T09:08:43;24.50;53.60
9219;DHT22;4644;48.858;9.184;2023-06-04T09:11:14;24.80;51.60
9219;DHT22;4644;48.858;9.184;2023-06-04T09:13:43;25.10;51.10
9219;DHT22;4644;48.858;9.184;2023-06-04T09:16:13;25.10;51.30
9219;DHT22;4644;48.858;9.184;2023-06-04T09:18:40;25.20;51.80
9219;DHT22;4644;48.858;9.184;2023-06-04T09:21:08;25.30;52.60
9219;DHT22;4644;48.858;9.184;2023-06-04T09:23:36;25.50;50.80
9219;DHT22;4644;48.858;9.184;2023-06-04T09:26:07;25.50;49.90
9219;DHT22;4644;48.858;9.184;2023-06-04T09:28:39;25.60;53.80
9219;DHT22;4644;48.858;9.184;2023-06-04T09:31:08;25.80;50.90
9219;DHT22;4644;48.858;9.184;2023-06-04T09:33:42;26.00;49.90
9219;DHT22;4644;48.858;9.184;2023-06-04T09:36:10;26.10;50.00
9219;DHT22;4644;48.858;9.184;2023-06-04T09:38:37;26.40;51.20
9219;DHT22;4644;48.858;9.184;2023-06-04T09:41:10;26.50;50.20
9219;DHT22;4644;48.858;9.184;2023-06-04T09:43:38;26.40;48.40
9219;DHT22;4644;48.858;9.184;2023-06-04T09:46:10;26.40;49.10
9219;DHT22;4644;48.858;9.184;2023-06-04T09:48:37;26.50;47.60
9219;DHT22;4644;48.858;9.184;2023-06-04T09:51:08;26.10;47.90
9219;DHT22;4644;48.858;9.184;2023-06-04T09:53:36;26.10;48.40
9219;DHT22;4644;48.858;9.184;2023-06-04T09:56:04;26.60;50.30
9219;DHT22;4644;48.858;9.184;2023-06-04T09:58:32;26.80;51.90
9219;DHT22;4644;48.858;9.184;2023-06-04T10:01:03;26.90;49.10
9219;DHT22;4644;48.858;9.184;2023-06-04T10:03:31;26.90;47.40
9219;DHT22;4644;48.858;9.184;2023-06-04T10:06:00;26.80;48.10
9219;DHT22;4644;48.858;9.184;2023-06-04T10:08:27;26.90;50.00
9219;DHT22;4644;48.858;9.184;2023-06-04T10:10:56;26.90;48.30
9219;DHT22;4644;48.858;9.184;2023-06-04T10:13:27;27.50;48.30
9219;DHT22;4644;48.858;9.184;2023-06-04T10:15:56;27.30;45.60
9219;DHT22;4644;48.858;9.184;2023-06-04T10:18:26;27.20;44.80
9219;DHT22;4644;48.858;9.184;2023-06-04T10:20:55;27.50;46.90
9219;DHT22;4644;48.858;9.184;2023-06-04T10:23:23;27.70;45.50
9219;DHT22;4644;48.858;9.184;2023-06-04T10:25:51;27.60;47.40
9219;DHT22;4644;48.858;9.184;2023-06-04T10:28:20;27.70;46.60
9219;DHT22;4644;48.858;9.184;2023-06-04T10:30:47;27.60;43.30
9219;DHT22;4644;48.858;9.184;2023-06-04T10:33:17;27.60;45.60
9219;DHT22;4644;48.858;9.184;2023-06-04T10:35:46;27.70;45.50
9219;DHT22;4644;48.858;9.184;2023-06-04T10:38:14;28.10;45.90
9219;DHT22;4644;48.858;9.184;2023-06-04T10:40:42;28.10;43.70
9219;DHT22;4644;48.858;9.184;2023-06-04T10:43:11;28.30;46.00
9219;DHT22;4644;48.858;9.184;2023-06-04T10:45:39;28.80;43.30
9219;DHT22;4644;48.858;9.184;2023-06-04T10:48:07;28.80;42.80
9219;DHT22;4644;48.858;9.184;2023-06-04T10:50:47;28.70;41.30
9219;DHT22;4644;48.858;9.184;2023-06-04T10:53:17;28.50;41.70
9219;DHT22;4644;48.858;9.184;2023-06-04T10:55:45;28.30;41.10
9219;DHT22;4644;48.858;9.184;2023-06-04T10:58:12;28.20;44.50
9219;DHT22;4644;48.858;9.184;2023-06-04T11:00:41;28.20;43.40
9219;DHT22;4644;48.858;9.184;2023-06-04T11:03:10;28.50;40.30
9219;DHT22;4644;48.858;9.184;2023-06-04T11:05:38;28.50;41.40
9219;DHT22;4644;48.858;9.184;2023-06-04T11:08:06;28.40;43.40
9219;DHT22;4644;48.858;9.184;2023-06-04T11:10:36;28.60;45.60
9219;DHT22;4644;48.858;9.184;2023-06-04T11:13:03;28.70;40.90
9219;DHT22;4644;48.858;9.184;2023-06-04T11:15:38;28.60;40.90
9219;DHT22;4644;48.858;9.184;2023-06-04T11:18:05;28.50;40.60
9219;DHT22;4644;48.858;9.184;2023-06-04T11:20:32;28.50;41.70
9219;DHT22;4644;48.858;9.184;2023-06-04T11:22:59;28.70;45.50
9219;DHT22;4644;48.858;9.184;2023-06-04T11:25:29;29.00;41.20
9219;DHT22;4644;48.858;9.184;2023-06-04T11:28:00;29.00;39.20
9219;DHT22;4644;48.858;9.184;2023-06-04T11:30:28;28.80;40.00
9219;DHT22;4644;48.858;9.184;2023-06-04T11:33:02;28.80;41.70
9219;DHT22;4644;48.858;9.184;2023-06-04T11:35:30;29.00;43.30
9219;DHT22;4644;48.858;9.184;2023-06-04T11:37:58;29.20;40.80
9219;DHT22;4644;48.858;9.184;2023-06-04T11:40:25;29.50;42.10
9219;DHT22;4644;48.858;9.184;2023-06-04T11:42:53;29.70;40.60
9219;DHT22;4644;48.858;9.184;2023-06-04T11:45:22;29.90;38.90
9219;DHT22;4644;48.858;9.184;2023-06-04T11:47:50;30.30;40.30
9219;DHT22;4644;48.858;9.184;2023-06-04T11:50:17;30.60;37.10
9219;DHT22;4644;48.858;9.184;2023-06-04T11:52:44;30.70;38.50
9219;DHT22;4644;48.858;9.184;2023-06-04T11:55:12;30.70;36.70
9219;DHT22;4644;48.858;9.184;2023-06-04T11:57:40;30.60;36.70
9219;DHT22;4644;48.858;9.184;2023-06-04T12:00:08;30.20;36.40
9219;DHT22;4644;48.858;9.184;2023-06-04T12:02:37;29.70;37.50
9219;DHT22;4644;48.858;9.184;2023-06-04T12:05:11;29.30;43.00
9219;DHT22;4644;48.858;9.184;2023-06-04T12:07:38;29.00;40.80
9219;DHT22;4644;48.858;9.184;2023-06-04T12:10:06;28.90;38.90
9219;DHT22;4644;48.858;9.184;2023-06-04T12:12:34;28.30;39.70
9219;DHT22;4644;48.858;9.184;2023-06-04T12:15:01;28.30;40.90
9219;DHT22;4644;48.858;9.184;2023-06-04T12:17:31;28.00;40.60
9219;DHT22;4644;48.858;9.184;2023-06-04T12:19:59;27.90;40.30
9219;DHT22;4644;48.858;9.184;2023-06-04T12:22:26;27.90;39.30
9219;DHT22;4644;48.858;9.184;2023-06-04T12:24:55;27.80;42.80
9219;DHT22;4644;48.858;9.184;2023-06-04T12:27:23;27.90;41.10
9219;DHT22;4644;48.858;9.184;2023-06-04T12:29:58;28.00;40.30
9219;DHT22;4644;48.858;9.184;2023-06-04T12:32:26;28.10;42.50
9219;DHT22;4644;48.858;9.184;2023-06-04T12:34:53;28.20;40.30
9219;DHT22;4644;48.858;9.184;2023-06-04T12:37:22;28.20;40.70
9219;DHT22;4644;48.858;9.184;2023-06-04T12:39:51;28.00;39.90
9219;DHT22;4644;48.858;9.184;2023-06-04T12:42:18;27.90;41.10
9219;DHT22;4644;48.858;9.184;2023-06-04T12:44:45;27.80;41.00
9219;DHT22;4644;48.858;9.184;2023-06-04T12:47:12;27.80;41.00
9219;DHT22;4644;48.858;9.184;2023-06-04T12:49:40;27.70;39.70
9219;DHT22;4644;48.858;9.184;2023-06-04T12:52:07;27.60;40.90
9219;DHT22;4644;48.858;9.184;2023-06-04T12:54:35;27.60;40.80
9219;DHT22;4644;48.858;9.184;2023-06-04T12:57:02;27.70;39.70
9219;DHT22;4644;48.858;9.184;2023-06-04T12:59:29;27.70;40.00
9219;DHT22;4644;48.858;9.184;2023-06-04T13:01:56;27.60;40.90
9219;DHT22;4644;48.858;9.184;2023-06-04T13:04:23;27.40;38.80
9219;DHT22;4644;48.858;9.184;2023-06-04T13:06:50;27.30;40.50
9219;DHT22;4644;48.858;9.184;2023-06-04T13:09:21;27.20;44.10
9219;DHT22;4644;48.858;9.184;2023-06-04T13:11:50;27.20;38.80
9219;DHT22;4644;48.858;9.184;2023-06-04T13:14:17;27.00;40.20
9219;DHT22;4644;48.858;9.184;2023-06-04T13:16:44;27.10;40.50
9219;DHT22;4644;48.858;9.184;2023-06-04T13:19:14;26.80;40.30
9219;DHT22;4644;48.858;9.184;2023-06-04T13:21:41;26.90;41.10
9219;DHT22;4644;48.858;9.184;2023-06-04T13:24:10;26.90;40.80
9219;DHT22;4644;48.858;9.184;2023-06-04T13:26:37;27.00;40.60
9219;DHT22;4644;48.858;9.184;2023-06-04T13:29:05;27.00;40.10
9219;DHT22;4644;48.858;9.184;2023-06-04T13:31:32;26.90;41.70
9219;DHT22;4644;48.858;9.184;2023-06-04T13:33:59;27.00;41.30
9219;DHT22;4644;48.858;9.184;2023-06-04T13:36:26;26.90;39.70
9219;DHT22;4644;48.858;9.184;2023-06-04T13:38:53;26.80;40.40
9219;DHT22;4644;48.858;9.184;2023-06-04T13:41:20;26.70;40.40
9219;DHT22;4644;48.858;9.184;2023-06-04T13:43:47;26.60;39.70
9219;DHT22;4644;48.858;9.184;2023-06-04T13:46:16;26.50;39.10
9219;DHT22;4644;48.858;9.184;2023-06-04T13:48:43;26.50;40.20
9219;DHT22;4644;48.858;9.184;2023-06-04T13:51:09;26.60;40.00
9219;DHT22;4644;48.858;9.184;2023-06-04T13:53:37;26.80;42.40
9219;DHT22;4644;48.858;9.184;2023-06-04T13:56:04;26.90;40.50
9219;DHT22;4644;48.858;9.184;2023-06-04T13:58:31;26.80;40.10
9219;DHT22;4644;48.858;9.184;2023-06-04T14:00:59;26.70;39.60
9219;DHT22;4644;48.858;9.184;2023-06-04T14:03:27;26.70;39.50
9219;DHT22;4644;48.858;9.184;2023-06-04T14:05:54;26.70;38.70
9219;DHT22;4644;48.858;9.184;2023-06-04T14:08:21;26.70;39.60
9219;DHT22;4644;48.858;9.184;2023-06-04T14:10:48;26.60;40.90
9219;DHT22;4644;48.858;9.184;2023-06-04T14:13:17;26.70;39.20
9219;DHT22;4644;48.858;9.184;2023-06-04T14:15:44;26.80;39.80
9219;DHT22;4644;48.858;9.184;2023-06-04T14:18:11;27.00;39.50
9219;DHT22;4644;48.858;9.184;2023-06-04T14:20:39;27.10;38.50
9219;DHT22;4644;48.858;9.184;2023-06-04T14:23:06;26.90;38.20
9219;DHT22;4644;48.858;9.184;2023-06-04T14:25:33;26.70;38.50
9219;DHT22;4644;48.858;9.184;2023-06-04T14:28:02;26.50;38.30
9219;DHT22;4644;48.858;9.184;2023-06-04T14:30:29;26.50;39.00
9219;DHT22;4644;48.858;9.184;2023-06-04T14:32:56;26.60;38.90
9219;DHT22;4644;48.858;9.184;2023-06-04T14:35:22;26.70;40.60
9219;DHT22;4644;48.858;9.184;2023-06-04T14:37:51;26.70;38.10
9219;DHT22;4644;48.858;9.184;2023-06-04T14:40:18;26.60;38.90
9219;DHT22;4644;48.858;9.184;2023-06-04T14:42:45;26.70;39.90
9219;DHT22;4644;48.858;9.184;2023-06-04T14:45:12;26.90;40.50
9219;DHT22;4644;48.858;9.184;2023-06-04T14:47:39;26.90;39.80
9219;DHT22;4644;48.858;9.184;2023-06-04T14:50:06;26.80;39.00
9219;DHT22;4644;48.858;9.184;2023-06-04T14:52:33;26.80;38.50
9219;DHT22;4644;48.858;9.184;2023-06-04T14:55:02;26.90;39.30
9219;DHT22;4644;48.858;9.184;2023-06-04T14:57:28;27.30;37.80
9219;DHT22;4644;48.858;9.184;2023-06-04T14:59:55;27.30;37.50
9219;DHT22;4644;48.858;9.184;2023-06-04T15:02:22;27.80;38.50
9219;DHT22;4644;48.858;9.184;2023-06-04T15:04:49;27.80;37.60
9219;DHT22;4644;48.858;9.184;2023-06-04T15:07:16;27.70;37.60
9219;DHT22;4644;48.858;9.184;2023-06-04T15:09:44;28.20;37.90
9219;DHT22;4644;48.858;9.184;2023-06-04T15:12:14;28.70;37.40
9219;DHT22;4644;48.858;9.184;2023-06-04T15:14:42;29.30;35.30
9219;DHT22;4644;48.858;9.184;2023-06-04T15:17:09;30.50;32.70
9219;DHT22;4644;48.858;9.184;2023-06-04T15:19:36;31.80;30.90
9219;DHT22;4644;48.858;9.184;2023-06-04T15:22:04;32.50;29.80
9219;DHT22;4644;48.858;9.184;2023-06-04T15:24:30;33.80;29.10
9219;DHT22;4644;48.858;9.184;2023-06-04T15:26:58;35.00;27.30
9219;DHT22;4644;48.858;9.184;2023-06-04T15:29:26;35.70;27.70
9219;DHT22;4644;48.858;9.184;2023-06-04T15:31:53;36.40;26.50
9219;DHT22;4644;48.858;9.184;2023-06-04T15:34:20;37.00;25.40
9219;DHT22;4644;48.858;9.184;2023-06-04T15:36:47;37.10;25.30
9219;DHT22;4644;48.858;9.184;2023-06-04T15:39:14;37.60;26.20
9219;DHT22;4644;48.858;9.184;2023-06-04T15:41:41;38.20;25.20
9219;DHT22;4644;48.858;9.184;2023-06-04T15:44:08;38.10;24.90
9219;DHT22;4644;48.858;9.184;2023-06-04T15:46:36;38.70;25.30
9219;DHT22;4644;48.858;9.184;2023-06-04T15:49:05;39.70;25.60
9219;DHT22;4644;48.858;9.184;2023-06-04T15:51:33;39.70;23.90
9219;DHT22;4644;48.858;9.184;2023-06-04T15:54:00;39.90;23.80
9219;DHT22;4644;48.858;9.184;2023-06-04T15:56:27;39.20;23.60
9219;DHT22;4644;48.858;9.184;2023-06-04T15:58:54;38.60;23.50
9219;DHT22;4644;48.858;9.184;2023-06-04T16:01:21;37.70;24.30
9219;DHT22;4644;48.858;9.184;2023-06-04T16:03:50;37.10;25.20
9219;DHT22;4644;48.858;9.184;2023-06-04T16:06:17;37.40;24.80